Time;durP1;ratioP1;P1;durP2;ratioP2;P2;SDS_P1;SDS_P2;PMS_P1;PMS_P2;Temp;Humidity;BMP_temperature;BMP_pressure;BME280_temperature;BME280_humidity;BME280_pressure;Samples;Min_cycle;Max_cycle;Signal;HPM_P1;HPM_P2
2021/11/09 00:01:49;;;;;;;;;;;20.90;62.80;;;;;;5050411;28;1470;-70
2021/11/09 00:04:14;;;;;;;;;;;20.80;62.80;;;;;;5072303;28;1110;-69
2021/11/09 00:06:42;;;;;;;;;;;20.80;62.80;;;;;;5086391;28;1719;-69
2021/11/09 00:09:12;;;;;;;;;;;20.80;62.90;;;;;;5054763;28;1250;-70
2021/11/09 00:11:38;;;;;;;;;;;20.80;62.90;;;;;;5054469;28;1965;-69
2021/11/09 00:14:03;;;;;;;;;;;20.80;62.90;;;;;;5053520;28;1258;-69
2021/11/09 00:16:30;;;;;;;;;;;20.80;63.00;;;;;;5054128;28;1353;-70
2021/11/09 00:18:56;;;;;;;;;;;20.80;63.00;;;;;;5086448;28;1675;-69
2021/11/09 00:21:22;;;;;;;;;;;20.80;63.00;;;;;;5053929;28;1456;-69
2021/11/09 00:23:47;;;;;;;;;;;20.80;63.00;;;;;;5054507;28;1162;-69
2021/11/09 00:26:13;;;;;;;;;;;20.80;63.10;;;;;;5034206;28;1440;-70
2021/11/09 00:28:39;;;;;;;;;;;20.80;63.10;;;;;;5086197;28;1630;-70
2021/11/09 00:31:04;;;;;;;;;;;20.80;63.10;;;;;;5053593;28;1890;-69
2021/11/09 00:33:30;;;;;;;;;;;20.80;63.10;;;;;;5053984;28;1675;-69
2021/11/09 00:35:55;;;;;;;;;;;20.80;63.10;;;;;;5054200;28;1399;-69
2021/11/09 00:38:21;;;;;;;;;;;20.80;63.10;;;;;;5054076;28;1422;-69
2021/11/09 00:40:46;;;;;;;;;;;20.80;63.10;;;;;;5035362;28;1380;-69
2021/11/09 00:43:13;;;;;;;;;;;20.80;63.20;;;;;;5052524;28;1775;-69
2021/11/09 00:45:38;;;;;;;;;;;20.70;63.10;;;;;;5054023;28;1390;-69
2021/11/09 00:48:04;;;;;;;;;;;20.70;63.10;;;;;;5052648;28;1280;-69
2021/11/09 00:50:29;;;;;;;;;;;20.70;63.20;;;;;;5053266;28;1969;-69
2021/11/09 00:52:55;;;;;;;;;;;20.70;63.20;;;;;;5085290;28;1042;-70
2021/11/09 00:55:20;;;;;;;;;;;20.70;63.20;;;;;;5052449;28;1387;-69
2021/11/09 00:57:46;;;;;;;;;;;20.70;63.20;;;;;;5052207;28;1208;-70
2021/11/09 01:00:14;;;;;;;;;;;20.70;63.20;;;;;;5032478;28;1378;-69
2021/11/09 01:02:40;;;;;;;;;;;20.70;63.30;;;;;;5038442;28;1670;-69
2021/11/09 01:05:06;;;;;;;;;;;20.70;63.30;;;;;;5053045;28;1670;-69
2021/11/09 01:07:31;;;;;;;;;;;20.70;63.30;;;;;;5053118;28;1414;-69
2021/11/09 01:09:56;;;;;;;;;;;20.70;63.30;;;;;;5053465;28;1479;-69
2021/11/09 01:12:22;;;;;;;;;;;20.70;63.30;;;;;;5051967;28;1906;-69
2021/11/09 01:14:47;;;;;;;;;;;20.70;63.30;;;;;;5052804;28;1384;-69
2021/11/09 01:17:13;;;;;;;;;;;20.70;63.30;;;;;;5053285;28;1497;-69
2021/11/09 01:19:38;;;;;;;;;;;20.70;63.40;;;;;;5052981;28;1469;-69
2021/11/09 01:22:04;;;;;;;;;;;20.70;63.40;;;;;;5051909;28;1314;-69
2021/11/09 01:24:30;;;;;;;;;;;20.70;63.40;;;;;;5052765;28;1265;-69
2021/11/09 01:26:55;;;;;;;;;;;20.70;63.40;;;;;;5085320;28;1671;-69
2021/11/09 01:29:21;;;;;;;;;;;20.70;63.40;;;;;;5052866;28;1371;-69
2021/11/09 01:31:46;;;;;;;;;;;20.70;63.50;;;;;;5051973;28;1902;-69
2021/11/09 01:34:12;;;;;;;;;;;20.70;63.50;;;;;;5051479;28;1378;-69
2021/11/09 01:36:37;;;;;;;;;;;20.70;63.50;;;;;;5051490;28;1552;-69
2021/11/09 01:39:04;;;;;;;;;;;20.60;63.40;;;;;;5052922;28;1373;-69
2021/11/09 01:41:29;;;;;;;;;;;20.70;63.50;;;;;;5051591;28;1416;-69
2021/11/09 01:43:55;;;;;;;;;;;20.70;63.50;;;;;;5052166;28;1695;-69
2021/11/09 01:46:20;;;;;;;;;;;20.70;63.50;;;;;;5085125;28;1657;-68
2021/11/09 01:48:47;;;;;;;;;;;20.70;63.50;;;;;;5052604;28;1379;-69
2021/11/09 01:51:14;;;;;;;;;;;20.70;63.60;;;;;;5083433;28;1893;-69
2021/11/09 01:53:39;;;;;;;;;;;20.70;63.60;;;;;;5052599;28;1676;-69
2021/11/09 01:56:06;;;;;;;;;;;20.70;63.60;;;;;;5044216;28;1373;-69
2021/11/09 01:58:32;;;;;;;;;;;20.60;63.50;;;;;;5058756;22;2545;-67
2021/11/09 02:01:08;;;;;;;;;;;20.60;63.50;;;;;;5042570;28;1245;-67
2021/11/09 02:03:34;;;;;;;;;;;20.60;63.60;;;;;;5052139;28;1350;-68
2021/11/09 02:06:00;;;;;;;;;;;20.60;63.60;;;;;;5051006;28;1663;-68
2021/11/09 02:08:25;;;;;;;;;;;20.60;63.60;;;;;;5052277;28;1496;-67
2021/11/09 02:10:51;;;;;;;;;;;20.60;63.60;;;;;;5051442;28;1971;-67
2021/11/09 02:13:17;;;;;;;;;;;20.60;63.60;;;;;;5046949;28;2863;-67
2021/11/09 02:15:42;;;;;;;;;;;20.60;63.70;;;;;;5049839;28;1253;-67
2021/11/09 02:18:09;;;;;;;;;;;20.60;63.60;;;;;;5049270;28;1302;-67
2021/11/09 02:20:35;;;;;;;;;;;20.60;63.70;;;;;;5050396;28;1067;-67
2021/11/09 02:23:00;;;;;;;;;;;20.60;63.70;;;;;;5049146;28;1269;-67
2021/11/09 02:25:26;;;;;;;;;;;20.60;63.70;;;;;;5049778;28;1691;-67
2021/11/09 02:27:52;;;;;;;;;;;20.60;63.70;;;;;;5050321;28;1625;-68
2021/11/09 02:30:18;;;;;;;;;;;20.60;63.70;;;;;;5049955;28;1566;-68
2021/11/09 02:32:43;;;;;;;;;;;20.60;63.70;;;;;;5049135;28;1943;-68
2021/11/09 02:35:09;;;;;;;;;;;20.60;63.70;;;;;;5050882;28;1617;-68
2021/11/09 02:37:34;;;;;;;;;;;20.60;64.50;;;;;;5050925;28;1718;-68
2021/11/09 02:40:00;;;;;;;;;;;20.60;63.70;;;;;;5050878;28;1670;-68
2021/11/09 02:42:30;;;;;;;;;;;20.60;63.80;;;;;;5049972;28;1652;-69
2021/11/09 02:45:03;;;;;;;;;;;20.50;63.70;;;;;;5051080;28;1670;-68
2021/11/09 02:47:32;;;;;;;;;;;20.60;63.80;;;;;;5049780;28;1483;-68
2021/11/09 02:50:02;;;;;;;;;;;20.60;63.80;;;;;;5051103;28;1367;-68
2021/11/09 02:52:30;;;;;;;;;;;20.60;63.80;;;;;;5048669;28;1898;-68
2021/11/09 02:55:03;;;;;;;;;;;20.60;63.80;;;;;;5050846;28;1349;-68
2021/11/09 02:57:46;;;;;;;;;;;20.60;63.80;;;;;;5059615;28;1496;-68
2021/11/09 03:00:23;;;;;;;;;;;20.60;63.80;;;;;;5059514;28;1702;-68
2021/11/09 03:02:58;;;;;;;;;;;20.50;63.80;;;;;;5058322;28;1566;-68
2021/11/09 03:05:40;;;;;;;;;;;20.60;63.90;;;;;;5074573;28;1329;-68
2021/11/09 03:08:21;;;;;;;;;;;20.50;63.80;;;;;;5074746;28;1595;-68
2021/11/09 03:10:48;;;;;;;;;;;20.60;63.90;;;;;;5056842;28;1914;-68
2021/11/09 03:13:14;;;;;;;;;;;20.50;63.80;;;;;;5056648;28;1393;-68
2021/11/09 03:15:39;;;;;;;;;;;20.50;63.80;;;;;;5057611;28;1391;-68
2021/11/09 03:18:12;;;;;;;;;;;20.50;63.80;;;;;;5074161;28;1434;-68
2021/11/09 03:20:59;;;;;;;;;;;20.50;63.90;;;;;;5071380;28;1147;-68
2021/11/09 03:45:20;;;;;;;;;;;20.50;64.00;;;;;;5058383;28;1145;-67
2021/11/09 03:47:50;;;;;;;;;;;20.50;64.00;;;;;;5055726;28;1351;-67
2021/11/09 03:50:17;;;;;;;;;;;20.50;64.00;;;;;;5050618;28;1218;-67
2021/11/09 03:52:55;;;;;;;;;;;20.50;64.00;;;;;;5072246;28;1906;-68
2021/11/09 03:58:04;;;;;;;;;;;20.50;64.10;;;;;;5054343;28;1578;-67
2021/11/09 04:00:43;;;;;;;;;;;20.50;64.10;;;;;;5072275;28;1145;-67
2021/11/09 04:03:21;;;;;;;;;;;20.50;64.10;;;;;;5071221;28;1148;-68
2021/11/09 04:05:50;;;;;;;;;;;20.50;64.10;;;;;;5073160;28;1199;-68
2021/11/09 04:08:30;;;;;;;;;;;20.50;64.10;;;;;;5072618;28;1353;-67
2021/11/09 04:13:55;;;;;;;;;;;20.50;64.10;;;;;;5055968;28;1168;-69
2021/11/09 04:38:34;;;;;;;;;;;20.40;64.10;;;;;;5074169;28;1642;-67
2021/11/09 04:48:51;;;;;;;;;;;20.40;64.20;;;;;;5047387;28;2121;-70
2021/11/09 04:52:14;;;;;;;;;;;20.40;64.10;;;;;;5065196;28;1894;-69
2021/11/09 05:02:37;;;;;;;;;;;20.50;64.00;;;;;;5070760;28;1326;-69
2021/11/09 05:10:32;;;;;;;;;;;20.60;63.90;;;;;;5071826;28;1670;-68
2021/11/09 05:12:57;;;;;;;;;;;20.60;63.70;;;;;;5052891;28;1902;-69
2021/11/09 05:15:23;;;;;;;;;;;20.60;63.70;;;;;;5068252;28;1487;-69
2021/11/09 05:17:48;;;;;;;;;;;20.60;63.50;;;;;;5071531;28;1360;-68
2021/11/09 05:20:14;;;;;;;;;;;20.60;63.50;;;;;;5071615;28;1376;-67
2021/11/09 05:22:39;;;;;;;;;;;20.60;64.20;;;;;;5068157;28;1012;-68
2021/11/09 05:25:05;;;;;;;;;;;20.60;63.40;;;;;;5071668;28;1655;-67
2021/11/09 05:27:30;;;;;;;;;;;20.60;63.30;;;;;;5071781;28;1389;-67
2021/11/09 05:29:56;;;;;;;;;;;20.70;63.30;;;;;;5071633;28;1360;-68
2021/11/09 05:32:22;;;;;;;;;;;20.70;63.30;;;;;;5070504;28;1914;-69
2021/11/09 05:34:48;;;;;;;;;;;20.70;63.20;;;;;;5071625;28;1655;-70
2021/11/09 05:37:16;;;;;;;;;;;20.70;63.10;;;;;;5071832;28;1771;-70
2021/11/09 05:39:50;;;;;;;;;;;20.70;63.10;;;;;;5072491;28;1710;-70
2021/11/09 05:42:16;;;;;;;;;;;20.70;63.00;;;;;;5072138;28;1575;-70
2021/11/09 05:44:42;;;;;;;;;;;20.70;63.00;;;;;;5053624;28;1687;-70
2021/11/09 05:47:07;;;;;;;;;;;20.70;62.90;;;;;;5054229;28;1623;-68
2021/11/09 05:49:33;;;;;;;;;;;20.80;63.00;;;;;;5072693;28;1685;-69
2021/11/09 05:51:59;;;;;;;;;;;20.80;63.00;;;;;;5069144;28;1965;-69
2021/11/09 05:54:24;;;;;;;;;;;20.80;62.90;;;;;;5071100;28;1723;-69
2021/11/09 05:56:50;;;;;;;;;;;20.80;62.80;;;;;;5071644;28;1380;-69
2021/11/09 05:59:15;;;;;;;;;;;20.80;62.80;;;;;;5072482;28;1754;-68
2021/11/09 06:01:41;;;;;;;;;;;20.80;62.80;;;;;;5054120;28;1252;-69
2021/11/09 06:04:06;;;;;;;;;;;20.80;62.80;;;;;;5072177;28;1390;-68
2021/11/09 06:06:32;;;;;;;;;;;20.80;62.70;;;;;;5072543;28;1540;-69
2021/11/09 06:08:57;;;;;;;;;;;20.80;62.70;;;;;;5072160;28;1701;-69
2021/11/09 06:11:23;;;;;;;;;;;20.80;62.70;;;;;;5071482;28;1975;-69
2021/11/09 06:13:48;;;;;;;;;;;20.80;62.70;;;;;;5071980;28;1564;-69
2021/11/09 06:16:13;;;;;;;;;;;20.80;62.70;;;;;;5069635;28;1457;-69
2021/11/09 06:18:39;;;;;;;;;;;20.90;62.70;;;;;;5071864;28;1570;-68
2021/11/09 06:21:04;;;;;;;;;;;20.90;62.70;;;;;;5053171;28;1590;-68
2021/11/09 06:23:30;;;;;;;;;;;20.80;62.60;;;;;;5071985;28;1377;-68
2021/11/09 06:25:55;;;;;;;;;;;20.80;62.60;;;;;;5053668;28;1605;-68
2021/11/09 06:28:21;;;;;;;;;;;20.80;62.50;;;;;;5054104;28;1627;-68
2021/11/09 06:30:47;;;;;;;;;;;20.80;62.50;;;;;;5074549;28;1961;-68
2021/11/09 06:33:13;;;;;;;;;;;20.90;62.60;;;;;;5075826;28;1681;-68
2021/11/09 06:35:38;;;;;;;;;;;20.90;62.60;;;;;;5057980;28;1587;-68
2021/11/09 06:38:04;;;;;;;;;;;20.90;62.60;;;;;;5076059;28;1718;-68
2021/11/09 06:40:29;;;;;;;;;;;20.90;62.60;;;;;;5076163;28;1563;-68
2021/11/09 06:42:55;;;;;;;;;;;20.90;62.50;;;;;;5074698;28;1563;-68
2021/11/09 06:45:20;;;;;;;;;;;20.90;62.50;;;;;;5076113;28;1571;-68
2021/11/09 06:47:47;;;;;;;;;;;20.90;62.50;;;;;;5075633;28;1593;-68
2021/11/09 06:50:13;;;;;;;;;;;20.90;62.50;;;;;;5075853;28;1580;-68
2021/11/09 06:52:38;;;;;;;;;;;20.90;62.50;;;;;;5057018;28;1898;-68
2021/11/09 06:55:04;;;;;;;;;;;20.90;63.20;;;;;;5040928;28;1676;-68
2021/11/09 06:57:29;;;;;;;;;;;20.90;62.50;;;;;;5057624;28;1751;-69
2021/11/09 06:59:55;;;;;;;;;;;20.90;62.50;;;;;;5075578;28;1208;-68
2021/11/09 07:02:20;;;;;;;;;;;20.90;62.50;;;;;;5075325;28;1663;-69
2021/11/09 07:04:46;;;;;;;;;;;20.90;62.50;;;;;;5075639;28;1445;-67
2021/11/09 07:07:11;;;;;;;;;;;20.90;62.50;;;;;;5075176;28;1601;-69
2021/11/09 07:09:37;;;;;;;;;;;20.90;62.50;;;;;;5075791;28;1670;-69
2021/11/09 07:12:02;;;;;;;;;;;20.90;62.40;;;;;;5074127;28;1902;-67
2021/11/09 07:14:28;;;;;;;;;;;20.90;62.40;;;;;;5075106;28;1393;-67
2021/11/09 07:16:53;;;;;;;;;;;20.90;62.40;;;;;;5072535;28;1510;-67
2021/11/09 07:19:19;;;;;;;;;;;20.90;62.40;;;;;;5074946;28;1650;-67
2021/11/09 07:21:46;;;;;;;;;;;20.90;62.40;;;;;;5074425;28;1405;-68
2021/11/09 07:24:11;;;;;;;;;;;20.90;62.40;;;;;;5057024;28;1310;-67
2021/11/09 07:26:37;;;;;;;;;;;20.90;62.40;;;;;;5056545;28;1702;-68
2021/11/09 07:29:02;;;;;;;;;;;20.90;62.40;;;;;;5074908;28;1580;-68
2021/11/09 07:31:28;;;;;;;;;;;20.90;62.30;;;;;;5072580;28;1945;-68
2021/11/09 07:33:53;;;;;;;;;;;20.90;62.30;;;;;;5075311;28;1428;-68
2021/11/09 07:36:19;;;;;;;;;;;20.90;62.40;;;;;;5074577;28;1395;-68
2021/11/09 07:38:44;;;;;;;;;;;20.90;62.40;;;;;;5074755;28;1699;-68
2021/11/09 07:41:09;;;;;;;;;;;20.90;62.40;;;;;;5073186;28;1462;-67
2021/11/09 07:43:35;;;;;;;;;;;20.90;62.40;;;;;;5074237;28;1636;-67
2021/11/09 07:46:00;;;;;;;;;;;20.90;62.40;;;;;;5074359;28;1635;-68
2021/11/09 07:48:26;;;;;;;;;;;20.90;62.30;;;;;;5074658;28;1663;-67
2021/11/09 07:50:52;;;;;;;;;;;20.90;62.30;;;;;;5055986;28;1964;-69
2021/11/09 07:53:18;;;;;;;;;;;21.00;62.30;;;;;;5074301;28;1348;-69
2021/11/09 07:55:50;;;;;;;;;;;21.00;62.20;;;;;;5074813;28;1488;-70
2021/11/09 07:58:44;;;;;;;;;;;21.10;62.10;;;;;;5091694;22;3573;-69
2021/11/09 08:01:18;;;;;;;;;;;21.20;61.90;;;;;;5039158;28;1487;-69
2021/11/09 08:06:32;;;;;;;;;;;21.30;61.50;;;;;;5039767;28;1435;-71
2021/11/09 08:09:08;;;;;;;;;;;21.40;61.40;;;;;;5069612;28;1232;-71
2021/11/09 08:11:36;;;;;;;;;;;21.50;61.20;;;;;;5074461;28;1965;-71
2021/11/09 08:14:02;;;;;;;;;;;21.50;60.90;;;;;;5074769;28;1359;-71
2021/11/09 08:16:27;;;;;;;;;;;21.60;60.70;;;;;;5056801;28;1570;-71
2021/11/09 08:18:53;;;;;;;;;;;21.60;60.50;;;;;;5074305;28;1366;-69
2021/11/09 08:21:18;;;;;;;;;;;21.70;60.40;;;;;;5074235;28;1655;-71
2021/11/09 08:23:48;;;;;;;;;;;21.70;60.30;;;;;;5069517;28;1864;-72
2021/11/09 08:26:15;;;;;;;;;;;21.80;60.20;;;;;;5070810;28;2143;-71
2021/11/09 08:28:40;;;;;;;;;;;21.80;60.00;;;;;;5056498;28;1299;-71
2021/11/09 08:31:08;;;;;;;;;;;21.80;59.90;;;;;;5055989;28;2316;-71
2021/11/09 08:33:34;;;;;;;;;;;21.90;59.90;;;;;;5074562;28;1450;-71
2021/11/09 08:36:04;;;;;;;;;;;21.90;59.80;;;;;;5074139;28;1394;-72
2021/11/09 08:38:30;;;;;;;;;;;22.00;59.80;;;;;;5055861;28;1705;-72
2021/11/09 08:40:55;;;;;;;;;;;22.00;59.70;;;;;;5053385;28;1997;-71
2021/11/09 08:43:25;;;;;;;;;;;22.00;59.60;;;;;;5073878;28;1558;-72
2021/11/09 08:45:54;;;;;;;;;;;22.00;59.60;;;;;;5073399;28;1569;-72
2021/11/09 08:48:22;;;;;;;;;;;22.10;59.60;;;;;;5069601;28;1558;-69
2021/11/09 08:50:51;;;;;;;;;;;22.10;59.50;;;;;;5069190;28;1910;-73
2021/11/09 08:53:30;;;;;;;;;;;22.10;59.50;;;;;;5071682;28;1128;-70
2021/11/09 08:56:17;;;;;;;;;;;22.10;59.50;;;;;;5069991;28;2082;-70
2021/11/09 09:04:19;;;;;;;;;;;22.20;59.40;;;;;;5071823;28;1312;-70
2021/11/09 09:06:49;;;;;;;;;;;22.20;59.30;;;;;;5058889;28;1561;-70
2021/11/09 09:09:14;;;;;;;;;;;22.20;59.30;;;;;;5055557;28;1364;-70
2021/11/09 09:11:40;;;;;;;;;;;22.20;59.30;;;;;;5055274;28;1906;-70
2021/11/09 09:14:05;;;;;;;;;;;22.20;59.20;;;;;;5046153;28;1367;-70
2021/11/09 09:16:31;;;;;;;;;;;22.20;59.20;;;;;;5068323;28;1605;-71
2021/11/09 09:18:58;;;;;;;;;;;22.20;59.20;;;;;;5073383;28;1390;-71
2021/11/09 09:21:30;;;;;;;;;;;22.30;59.30;;;;;;5072954;28;1309;-70
2021/11/09 09:24:04;;;;;;;;;;;22.30;59.30;;;;;;5073370;28;1364;-70
2021/11/09 09:26:44;;;;;;;;;;;22.30;59.20;;;;;;5067007;28;1965;-70
2021/11/09 09:29:56;;;;;;;;;;;22.30;59.20;;;;;;5048715;28;1224;-70
2021/11/09 09:54:06;;;;;;;;;;;22.20;59.40;;;;;;5069827;28;1461;-70
2021/11/09 09:56:43;;;;;;;;;;;22.20;59.40;;;;;;5072405;28;1278;-70
2021/11/09 09:59:11;;;;;;;;;;;22.20;59.40;;;;;;5071810;28;1682;-70
2021/11/09 10:01:37;;;;;;;;;;;22.20;59.40;;;;;;5070722;28;1370;-71
2021/11/09 10:04:02;;;;;;;;;;;22.20;59.40;;;;;;5071432;28;1646;-70
2021/11/09 10:06:41;;;;;;;;;;;22.20;59.40;;;;;;5071918;28;1689;-71
2021/11/09 10:09:06;;;;;;;;;;;22.20;59.40;;;;;;5072166;28;1674;-71
2021/11/09 10:11:33;;;;;;;;;;;22.20;59.40;;;;;;5071771;28;1902;-71
2021/11/09 10:13:58;;;;;;;;;;;22.20;59.40;;;;;;5072169;28;1619;-71
2021/11/09 10:16:24;;;;;;;;;;;22.20;59.40;;;;;;5054116;28;1702;-71
2021/11/09 10:18:49;;;;;;;;;;;22.20;59.40;;;;;;5071842;28;1642;-72
2021/11/09 10:21:14;;;;;;;;;;;22.20;59.40;;;;;;5059661;28;1676;-71
2021/11/09 10:23:41;;;;;;;;;;;22.20;59.40;;;;;;5054154;28;1400;-71
2021/11/09 10:26:14;;;;;;;;;;;22.20;59.40;;;;;;5071955;28;1650;-70
2021/11/09 10:28:39;;;;;;;;;;;22.20;59.40;;;;;;5071820;28;1574;-70
2021/11/09 10:31:05;;;;;;;;;;;22.20;59.40;;;;;;5051129;28;2218;-71
2021/11/09 10:33:41;;;;;;;;;;;22.20;59.40;;;;;;5051193;28;1879;-72
2021/11/09 10:36:17;;;;;;;;;;;22.20;59.40;;;;;;5054226;28;2208;-71
2021/11/09 10:38:42;;;;;;;;;;;22.20;59.40;;;;;;5062348;28;1283;-72
2021/11/09 10:41:08;;;;;;;;;;;22.20;59.50;;;;;;5067129;28;1246;-71
2021/11/09 10:43:33;;;;;;;;;;;22.20;59.50;;;;;;5072314;28;1021;-71
2021/11/09 10:46:00;;;;;;;;;;;22.20;59.50;;;;;;5072266;28;1358;-72
2021/11/09 10:48:25;;;;;;;;;;;22.10;59.50;;;;;;5064768;28;1361;-71
2021/11/09 10:50:52;;;;;;;;;;;22.10;59.60;;;;;;5063597;28;1894;-72
2021/11/09 10:56:23;;;;;;;;;;;22.10;59.80;;;;;;5055176;28;1418;-71
2021/11/09 10:59:13;;;;;;;;;;;22.00;59.80;;;;;;5072111;28;1349;-70
2021/11/09 11:04:33;;;;;;;;;;;22.00;60.00;;;;;;5072216;28;1185;-71
2021/11/09 11:07:00;;;;;;;;;;;22.00;60.00;;;;;;5068234;28;2194;-71
2021/11/09 11:09:25;;;;;;;;;;;21.90;60.10;;;;;;5071856;28;1314;-73
2021/11/09 11:11:51;;;;;;;;;;;21.90;60.20;;;;;;5064395;28;1968;-70
2021/11/09 11:14:21;;;;;;;;;;;21.90;60.20;;;;;;5058801;28;2168;-70
2021/11/09 11:16:51;;;;;;;;;;;21.90;60.30;;;;;;5080873;28;1272;-70
2021/11/09 11:19:26;;;;;;;;;;;21.90;60.40;;;;;;5057614;28;1345;-70
2021/11/09 11:21:51;;;;;;;;;;;21.80;60.40;;;;;;5057481;28;1275;-70
2021/11/09 11:24:17;;;;;;;;;;;21.80;60.50;;;;;;5075926;28;1383;-70
2021/11/09 11:26:43;;;;;;;;;;;21.80;60.50;;;;;;5075519;28;2111;-70
2021/11/09 11:29:09;;;;;;;;;;;21.80;60.60;;;;;;5075294;28;1358;-70
2021/11/09 11:31:34;;;;;;;;;;;21.80;60.70;;;;;;5074887;28;1906;-70
2021/11/09 11:33:59;;;;;;;;;;;21.80;60.80;;;;;;5057725;28;1313;-70
2021/11/09 11:36:25;;;;;;;;;;;21.70;60.80;;;;;;5070546;28;1118;-71
2021/11/09 11:38:52;;;;;;;;;;;21.70;60.80;;;;;;5067365;28;1290;-70
2021/11/09 11:41:17;;;;;;;;;;;21.70;60.90;;;;;;5075265;28;915;-70
2021/11/09 11:43:43;;;;;;;;;;;21.70;61.00;;;;;;5045475;28;1293;-70
2021/11/09 11:46:11;;;;;;;;;;;21.70;61.00;;;;;;5050804;28;1646;-70
2021/11/09 11:48:56;;;;;;;;;;;21.60;61.00;;;;;;5067784;28;1363;-70
2021/11/09 11:51:21;;;;;;;;;;;21.60;61.10;;;;;;5062850;28;1898;-70
2021/11/09 11:53:49;;;;;;;;;;;21.60;61.20;;;;;;5056252;28;1152;-70
2021/11/09 11:56:16;;;;;;;;;;;21.60;61.20;;;;;;5071436;28;983;-71
2021/11/09 11:58:42;;;;;;;;;;;21.60;61.30;;;;;;5074573;28;1375;-70
2021/11/09 12:01:07;;;;;;;;;;;21.60;61.30;;;;;;5073930;28;1364;-70
2021/11/09 12:03:34;;;;;;;;;;;21.50;61.40;;;;;;5056599;28;1263;-70
2021/11/09 12:06:00;;;;;;;;;;;21.50;61.40;;;;;;5056848;28;1340;-70
2021/11/09 12:08:38;;;;;;;;;;;21.50;61.50;;;;;;5074110;28;1325;-71
2021/11/09 12:11:05;;;;;;;;;;;21.50;61.50;;;;;;5071128;28;1905;-72
2021/11/09 12:13:30;;;;;;;;;;;21.50;61.60;;;;;;5045476;28;1502;-71
2021/11/09 12:15:56;;;;;;;;;;;21.50;61.60;;;;;;5047216;28;1491;-70
2021/11/09 12:18:28;;;;;;;;;;;21.40;61.70;;;;;;5049407;28;1282;-70
2021/11/09 12:21:03;;;;;;;;;;;21.40;61.70;;;;;;5068052;28;1205;-71
2021/11/09 12:23:30;;;;;;;;;;;21.40;61.80;;;;;;5056136;28;1918;-70
2021/11/09 12:25:55;;;;;;;;;;;21.40;61.80;;;;;;5074102;28;1264;-70
2021/11/09 12:28:36;;;;;;;;;;;21.50;61.80;;;;;;5055820;28;1388;-69
2021/11/09 12:31:20;;;;;;;;;;;21.50;61.70;;;;;;5073085;28;1951;-70
2021/11/09 12:33:49;;;;;;;;;;;21.50;61.60;;;;;;5073054;28;1083;-69
2021/11/09 12:36:16;;;;;;;;;;;21.60;61.50;;;;;;5053614;28;1152;-69
2021/11/09 12:38:43;;;;;;;;;;;21.70;61.40;;;;;;5074002;28;1425;-68
2021/11/09 12:41:09;;;;;;;;;;;21.70;61.20;;;;;;5073718;28;1315;-69
2021/11/09 12:44:07;;;;;;;;;;;21.80;61.00;;;;;;5073278;28;1263;-70
2021/11/09 12:46:36;;;;;;;;;;;21.80;60.80;;;;;;5018527;28;1287;-69
2021/11/09 12:49:11;;;;;;;;;;;21.90;60.60;;;;;;5061051;28;1287;-68
2021/11/09 12:51:37;;;;;;;;;;;22.00;60.50;;;;;;5072563;28;1890;-71
2021/11/09 12:54:07;;;;;;;;;;;22.00;60.30;;;;;;5055609;28;1278;-70
2021/11/09 12:56:36;;;;;;;;;;;22.10;60.20;;;;;;5073174;28;1328;-71
2021/11/09 12:59:07;;;;;;;;;;;22.10;60.00;;;;;;5073242;28;1343;-71
2021/11/09 13:01:41;;;;;;;;;;;22.20;59.90;;;;;;5055243;28;1172;-71
2021/11/09 13:04:22;;;;;;;;;;;22.20;59.80;;;;;;5072735;28;1272;-71
2021/11/09 13:06:57;;;;;;;;;;;22.30;59.70;;;;;;5057549;28;1178;-70
2021/11/09 13:09:31;;;;;;;;;;;22.30;59.60;;;;;;5072731;28;1252;-71
2021/11/09 13:12:15;;;;;;;;;;;22.30;59.50;;;;;;5055803;28;1926;-68
2021/11/09 13:14:42;;;;;;;;;;;22.40;59.40;;;;;;5055754;28;1261;-69
2021/11/09 13:17:12;;;;;;;;;;;22.40;59.30;;;;;;5043172;28;1957;-68
2021/11/09 13:19:38;;;;;;;;;;;22.40;59.30;;;;;;5054466;28;1286;-70
2021/11/09 13:22:08;;;;;;;;;;;22.40;59.20;;;;;;5071329;28;1118;-69
2021/11/09 13:24:36;;;;;;;;;;;22.40;59.10;;;;;;5068088;28;1161;-69
2021/11/09 13:27:01;;;;;;;;;;;22.50;59.10;;;;;;5055813;28;1296;-69
2021/11/09 13:29:27;;;;;;;;;;;22.40;59.00;;;;;;5072420;28;1282;-70
2021/11/09 13:31:53;;;;;;;;;;;22.40;59.10;;;;;;5071113;28;1955;-70
2021/11/09 13:34:20;;;;;;;;;;;22.40;59.00;;;;;;5072613;28;1269;-70
2021/11/09 13:36:45;;;;;;;;;;;22.40;59.00;;;;;;5054749;28;1299;-70
2021/11/09 13:39:17;;;;;;;;;;;22.50;59.10;;;;;;5071931;28;1393;-69
2021/11/09 13:41:43;;;;;;;;;;;22.50;59.10;;;;;;5072564;28;1320;-68
2021/11/09 13:44:11;;;;;;;;;;;22.40;59.70;;;;;;5072678;28;1252;-68
2021/11/09 13:46:38;;;;;;;;;;;22.40;59.10;;;;;;5072063;28;1358;-69
2021/11/09 13:49:04;;;;;;;;;;;22.40;59.10;;;;;;5072405;28;1351;-70
2021/11/09 13:51:31;;;;;;;;;;;22.40;59.10;;;;;;5053658;28;1898;-69
2021/11/09 13:53:58;;;;;;;;;;;22.40;59.20;;;;;;5054144;28;1313;-68
2021/11/09 13:56:24;;;;;;;;;;;22.40;59.20;;;;;;5038262;28;1283;-69
2021/11/09 13:58:55;;;;;;;;;;;22.40;59.30;;;;;;5080415;22;1944;-67
2021/11/09 14:01:30;;;;;;;;;;;22.40;59.30;;;;;;5043732;28;1170;-67
2021/11/09 14:04:17;;;;;;;;;;;22.30;59.30;;;;;;5032407;28;1310;-67
2021/11/09 14:14:55;;;;;;;;;;;22.30;59.50;;;;;;5088089;28;1367;-67
2021/11/09 14:17:29;;;;;;;;;;;22.30;59.60;;;;;;5072210;28;1497;-67
2021/11/09 14:19:55;;;;;;;;;;;22.20;59.60;;;;;;5053937;28;1655;-67
2021/11/09 14:22:21;;;;;;;;;;;22.20;59.60;;;;;;5053836;28;1308;-67
2021/11/09 14:24:57;;;;;;;;;;;22.20;59.60;;;;;;5087671;28;1608;-67
2021/11/09 14:27:25;;;;;;;;;;;22.20;59.70;;;;;;5088274;28;1584;-67
2021/11/09 14:29:51;;;;;;;;;;;22.20;59.70;;;;;;5072021;28;1664;-67
2021/11/09 14:32:21;;;;;;;;;;;22.20;59.80;;;;;;5071309;28;1973;-67
2021/11/09 14:34:57;;;;;;;;;;;22.20;59.80;;;;;;5071994;28;1646;-67
2021/11/09 14:37:26;;;;;;;;;;;22.20;59.80;;;;;;5088084;28;1752;-67
2021/11/09 14:40:08;;;;;;;;;;;22.10;59.80;;;;;;5072137;28;1514;-67
2021/11/09 14:42:44;;;;;;;;;;;22.10;59.80;;;;;;5071222;28;1577;-67
2021/11/09 14:45:21;;;;;;;;;;;22.10;59.90;;;;;;5055323;28;1276;-68
2021/11/09 14:47:47;;;;;;;;;;;22.10;59.90;;;;;;5072073;28;1349;-67
2021/11/09 14:50:18;;;;;;;;;;;22.10;59.90;;;;;;5071821;28;1372;-67
2021/11/09 14:52:44;;;;;;;;;;;22.10;59.90;;;;;;5074916;28;1961;-67
2021/11/09 14:55:18;;;;;;;;;;;22.10;59.90;;;;;;5076074;28;1345;-67
2021/11/09 14:57:44;;;;;;;;;;;22.10;60.00;;;;;;5090691;28;1619;-67
2021/11/09 15:00:11;;;;;;;;;;;22.10;60.00;;;;;;5075974;28;1369;-67
2021/11/09 15:02:36;;;;;;;;;;;22.00;60.70;;;;;;5091008;28;1670;-67
2021/11/09 15:05:02;;;;;;;;;;;22.00;60.00;;;;;;5075484;28;885;-67
2021/11/09 15:07:33;;;;;;;;;;;22.00;60.10;;;;;;5075664;28;1632;-67
2021/11/09 15:26:21;;;;;;;;;;;21.90;60.30;;;;;;5075602;28;1440;-66
2021/11/09 15:28:51;;;;;;;;;;;21.90;60.30;;;;;;5075397;28;1440;-67
2021/11/09 15:31:22;;;;;;;;;;;21.90;60.30;;;;;;5058000;28;1906;-67
2021/11/09 15:33:50;;;;;;;;;;;22.00;60.40;;;;;;5057203;28;1862;-67
2021/11/09 15:38:44;;;;;;;;;;;21.90;60.40;;;;;;5075307;28;1368;-67
2021/11/09 15:41:09;;;;;;;;;;;21.90;60.40;;;;;;5056576;28;1473;-67
2021/11/09 15:43:35;;;;;;;;;;;21.90;60.40;;;;;;5074903;28;1329;-67
2021/11/09 15:46:01;;;;;;;;;;;21.90;60.50;;;;;;5090903;28;1739;-67
2021/11/09 15:48:27;;;;;;;;;;;21.90;60.50;;;;;;5090563;28;1392;-67
2021/11/09 15:50:53;;;;;;;;;;;21.90;60.50;;;;;;5074627;28;1361;-67
2021/11/09 15:53:18;;;;;;;;;;;21.90;60.50;;;;;;5074682;28;1953;-67
2021/11/09 15:55:44;;;;;;;;;;;21.80;60.50;;;;;;5074969;28;1163;-67
2021/11/09 15:58:10;;;;;;;;;;;21.80;60.50;;;;;;5074677;28;1349;-67
2021/11/09 16:00:37;;;;;;;;;;;21.90;60.90;;;;;;5075049;28;1313;-67
2021/11/09 16:03:02;;;;;;;;;;;21.80;60.60;;;;;;5056098;28;1457;-67
2021/11/09 16:05:28;;;;;;;;;;;21.80;60.60;;;;;;5074832;28;1458;-66
2021/11/09 16:07:54;;;;;;;;;;;21.80;60.60;;;;;;5071240;28;1299;-66
2021/11/09 16:10:20;;;;;;;;;;;21.80;60.60;;;;;;5063901;28;1261;-67
2021/11/09 16:12:46;;;;;;;;;;;21.80;60.70;;;;;;5066268;28;1972;-67
2021/11/09 16:15:12;;;;;;;;;;;21.80;60.70;;;;;;5066663;28;1200;-67
2021/11/09 16:17:39;;;;;;;;;;;21.80;60.70;;;;;;5068341;28;1385;-67
2021/11/09 16:20:05;;;;;;;;;;;21.80;60.70;;;;;;5066448;28;1227;-66
2021/11/09 16:22:33;;;;;;;;;;;21.70;60.80;;;;;;5068278;28;1281;-67
2021/11/09 16:24:59;;;;;;;;;;;21.80;60.80;;;;;;5067522;28;1211;-67
2021/11/09 16:27:24;;;;;;;;;;;21.80;60.80;;;;;;5063941;28;1207;-68
2021/11/09 16:29:59;;;;;;;;;;;21.70;60.80;;;;;;5065577;28;1613;-68
2021/11/09 16:32:29;;;;;;;;;;;21.70;60.80;;;;;;5064345;28;2293;-68
2021/11/09 16:34:58;;;;;;;;;;;21.70;60.80;;;;;;5051805;28;1364;-68
2021/11/09 16:37:24;;;;;;;;;;;21.70;60.90;;;;;;5058746;28;1235;-66
2021/11/09 16:39:52;;;;;;;;;;;21.70;60.90;;;;;;5073458;28;1389;-66
2021/11/09 16:42:19;;;;;;;;;;;21.70;60.90;;;;;;5073315;28;1328;-66
2021/11/09 16:44:45;;;;;;;;;;;21.70;60.90;;;;;;5073379;28;1075;-66
2021/11/09 16:47:10;;;;;;;;;;;21.70;61.00;;;;;;5073623;28;1314;-68
2021/11/09 16:52:25;;;;;;;;;;;21.70;61.00;;;;;;5045016;28;1961;-68
2021/11/09 17:00:33;;;;;;;;;;;21.70;61.10;;;;;;5066422;28;1281;-68